createdAt,value
2022-11-25T00:01:31.853Z,4.15
2022-11-25T00:04:00.186Z,4.05
2022-11-25T00:06:33.562Z,4.68
2022-11-25T00:09:06.759Z,5.47
2022-11-25T00:11:36.632Z,5.85
2022-11-25T00:16:31.532Z,5.10
2022-11-25T00:18:59.083Z,6.97
2022-11-25T00:21:30.031Z,5.47
2022-11-25T00:23:59.695Z,4.30
2022-11-25T00:26:30.133Z,4.80
2022-11-25T00:28:59.478Z,4.18
2022-11-25T00:31:30.244Z,6.65
2022-11-25T00:33:57.858Z,5.40
2022-11-25T00:36:28.426Z,5.90
2022-11-25T00:39:02.144Z,5.43
2022-11-25T00:41:49.534Z,3.92
2022-11-25T00:44:38.914Z,3.13
2022-11-25T00:47:10.461Z,5.25
2022-11-25T00:49:40.609Z,5.80
2022-11-25T00:52:11.388Z,3.63
2022-11-25T00:54:38.590Z,3.35
2022-11-25T00:57:06.089Z,3.95
2022-11-25T00:59:33.215Z,4.68
2022-11-25T01:02:00.825Z,4.30
2022-11-25T01:04:28.380Z,3.53
2022-11-25T01:06:56.990Z,4.63
2022-11-25T01:09:23.959Z,4.13
2022-11-25T01:11:51.760Z,4.22
2022-11-25T01:14:19.650Z,2.85
2022-11-25T01:16:48.778Z,6.03
2022-11-25T01:19:17.319Z,4.88
2022-11-25T01:21:44.699Z,4.15
2022-11-25T01:24:14.114Z,6.10
2022-11-25T01:26:42.690Z,4.00
2022-11-25T01:29:19.815Z,4.85
2022-11-25T01:31:48.930Z,5.07
2022-11-25T01:34:21.750Z,3.88
2022-11-25T01:36:49.835Z,6.35
2022-11-25T01:39:19.494Z,2.90
2022-11-25T01:41:48.292Z,3.50
2022-11-25T01:44:21.940Z,5.43
2022-11-25T01:47:23.635Z,3.85
2022-11-25T01:49:54.546Z,3.88
2022-11-25T01:52:29.695Z,6.28
2022-11-25T01:55:05.838Z,5.95
2022-11-25T01:57:42.877Z,4.35
2022-11-25T02:00:10.878Z,6.53
2022-11-25T02:02:38.469Z,3.30
2022-11-25T02:05:09.849Z,3.80
2022-11-25T02:07:44.224Z,5.50
2022-11-25T02:10:16.349Z,4.10
2022-11-25T02:12:45.405Z,4.10
2022-11-25T02:15:15.400Z,4.85
2022-11-25T02:20:16.801Z,6.15
2022-11-25T02:22:59.764Z,5.93
2022-11-25T02:25:35.981Z,4.63
2022-11-25T02:28:09.287Z,4.70
2022-11-25T02:30:37.590Z,7.10
2022-11-25T02:33:04.940Z,5.18
2022-11-25T02:35:38.149Z,6.78
2022-11-25T02:38:12.719Z,5.38
2022-11-25T02:41:01.144Z,6.55
2022-11-25T02:43:29.539Z,6.72
2022-11-25T02:46:05.318Z,8.30
2022-11-25T02:49:06.885Z,7.97
2022-11-25T02:51:25.133Z,5.25
2022-11-25T02:53:52.834Z,9.30
2022-11-25T02:56:23.143Z,8.32
2022-11-25T02:58:50.510Z,5.72
2022-11-25T03:01:18.144Z,8.38
2022-11-25T03:03:45.438Z,10.52
2022-11-25T03:06:12.811Z,8.18
2022-11-25T03:08:39.908Z,7.45
2022-11-25T03:11:07.400Z,8.30
2022-11-25T03:13:34.601Z,12.98
2022-11-25T03:16:01.910Z,9.05
2022-11-25T03:18:30.060Z,9.52
2022-11-25T03:20:57.666Z,8.73
2022-11-25T03:23:25.091Z,11.63
2022-11-25T03:25:52.629Z,9.48
2022-11-25T03:28:21.813Z,7.65
2022-11-25T03:30:49.690Z,4.95
2022-11-25T03:33:16.907Z,8.43
2022-11-25T03:35:44.498Z,9.40
2022-11-25T03:38:11.528Z,13.40
2022-11-25T03:40:38.862Z,11.35
2022-11-25T03:43:10.776Z,10.52
2022-11-25T03:45:38.366Z,9.13
2022-11-25T03:48:05.568Z,6.80
2022-11-25T03:50:33.417Z,8.07
2022-11-25T03:53:00.494Z,6.28
2022-11-25T03:55:27.862Z,7.32
2022-11-25T03:57:54.809Z,8.32
2022-11-25T04:00:22.242Z,7.47
2022-11-25T04:02:49.511Z,6.22
2022-11-25T04:05:17.597Z,6.20
2022-11-25T04:07:44.826Z,5.65
2022-11-25T04:10:12.503Z,5.95
2022-11-25T04:12:48.611Z,3.80
2022-11-25T04:15:18.722Z,5.85
2022-11-25T04:17:46.085Z,6.55
2022-11-25T04:25:39.046Z,5.38
2022-11-25T04:28:06.394Z,6.32
2022-11-25T04:30:35.180Z,5.30
2022-11-25T04:35:45.345Z,6.43
2022-11-25T04:38:12.293Z,7.78
2022-11-25T04:40:39.599Z,4.57
2022-11-25T04:43:10.456Z,5.22
2022-11-25T04:46:06.477Z,5.63
2022-11-25T04:48:25.521Z,5.70
2022-11-25T04:50:53.040Z,5.78
2022-11-25T04:53:23.467Z,6.90
2022-11-25T04:55:50.775Z,4.25
2022-11-25T04:58:41.934Z,5.30
2022-11-25T05:01:09.933Z,5.70
2022-11-25T05:03:36.905Z,2.90
2022-11-25T05:06:10.730Z,7.13
2022-11-25T05:08:37.706Z,4.28
2022-11-25T05:11:07.700Z,5.05
2022-11-25T05:13:41.756Z,4.60
2022-11-25T05:16:09.633Z,4.18
2022-11-25T05:18:37.461Z,8.55
2022-11-25T05:21:05.635Z,5.82
2022-11-25T05:23:32.724Z,4.05
2022-11-25T05:26:02.860Z,5.55
2022-11-25T05:28:30.714Z,4.43
2022-11-25T05:30:58.828Z,4.45
2022-11-25T05:33:49.044Z,4.97
2022-11-25T05:36:25.158Z,6.40
2022-11-25T05:38:52.367Z,5.05
2022-11-25T05:41:19.698Z,3.83
2022-11-25T05:43:48.225Z,4.95
2022-11-25T05:46:20.909Z,3.45
2022-11-25T05:48:54.439Z,6.10
2022-11-25T05:51:22.492Z,7.45
2022-11-25T05:53:49.713Z,4.88
2022-11-25T05:56:17.412Z,4.07
2022-11-25T05:58:47.659Z,7.43
2022-11-25T06:01:16.932Z,5.97
2022-11-25T06:03:44.092Z,4.03
2022-11-25T06:06:12.547Z,7.25
2022-11-25T06:08:40.047Z,3.70
2022-11-25T06:11:13.363Z,9.98
2022-11-25T06:13:42.281Z,4.25
2022-11-25T06:16:11.087Z,4.55
2022-11-25T06:18:38.781Z,5.13
2022-11-25T06:21:10.058Z,8.02
2022-11-25T06:23:38.347Z,6.68
2022-11-25T06:26:22.435Z,7.88
2022-11-25T06:28:55.969Z,6.00
2022-11-25T06:31:25.712Z,8.27
2022-11-25T06:33:54.183Z,5.40
2022-11-25T06:36:22.464Z,7.00
2022-11-25T06:38:52.314Z,10.10
2022-11-25T06:41:21.481Z,5.28
2022-11-25T06:43:52.142Z,5.05
2022-11-25T06:46:24.780Z,9.30
2022-11-25T06:48:53.579Z,9.25
2022-11-25T06:51:20.976Z,9.75
2022-11-25T06:53:48.019Z,8.07
2022-11-25T06:56:21.982Z,10.23
2022-11-25T06:58:52.727Z,7.03
2022-11-25T07:01:25.390Z,9.85
2022-11-25T07:04:01.347Z,8.30
2022-11-25T07:06:29.290Z,10.95
2022-11-25T07:08:56.846Z,5.30
2022-11-25T07:11:30.647Z,9.13
2022-11-25T07:14:06.360Z,6.53
2022-11-25T07:16:34.752Z,9.70
2022-11-25T07:19:02.545Z,9.95
2022-11-25T07:21:31.463Z,10.15
2022-11-25T07:24:00.830Z,6.93
2022-11-25T07:26:34.918Z,9.27
2022-11-25T07:29:04.458Z,6.65
2022-11-25T07:31:34.950Z,6.20
2022-11-25T07:34:14.325Z,11.25
2022-11-25T07:36:45.172Z,9.75
2022-11-25T07:39:15.433Z,7.80
2022-11-25T07:41:46.267Z,7.38
2022-11-25T07:44:15.472Z,9.52
2022-11-25T07:46:54.048Z,9.80
2022-11-25T07:51:57.764Z,8.02
2022-11-25T07:54:27.312Z,8.85
2022-11-25T07:56:58.148Z,6.35
2022-11-25T07:59:25.432Z,6.35
2022-11-25T08:01:54.526Z,11.05
2022-11-25T08:04:22.448Z,6.85
2022-11-25T08:06:52.704Z,7.65
2022-11-25T08:09:22.553Z,7.18
2022-11-25T08:11:51.788Z,7.88
2022-11-25T08:14:19.934Z,6.63
2022-11-25T08:16:48.240Z,6.50
2022-11-25T08:19:18.095Z,5.88
2022-11-25T08:21:49.307Z,7.63
2022-11-25T08:24:22.531Z,5.88
2022-11-25T08:26:50.064Z,7.47
2022-11-25T08:29:19.140Z,7.40
2022-11-25T08:31:47.473Z,8.20
2022-11-25T08:34:20.833Z,5.68
2022-11-25T08:36:49.150Z,7.45
2022-11-25T08:39:44.247Z,8.95
2022-11-25T08:42:06.849Z,10.27
2022-11-25T08:44:34.969Z,9.18
2022-11-25T08:47:02.453Z,10.20
2022-11-25T08:49:33.668Z,11.77
2022-11-25T08:52:03.653Z,11.15
2022-11-25T08:54:34.556Z,6.93
2022-11-25T08:57:02.374Z,9.65
2022-11-25T08:59:31.261Z,8.60
2022-11-25T09:01:59.631Z,9.55
2022-11-25T09:04:26.929Z,10.25
2022-11-25T09:06:54.686Z,9.05
2022-11-25T09:09:21.839Z,7.05
2022-11-25T09:11:49.308Z,10.93
2022-11-25T09:14:25.989Z,13.05
2022-11-25T09:16:54.661Z,9.73
2022-11-25T09:19:21.725Z,11.45
2022-11-25T09:21:54.005Z,10.25
2022-11-25T09:24:31.666Z,9.73
2022-11-25T09:27:03.325Z,9.77
2022-11-25T09:29:31.103Z,9.55
2022-11-25T09:32:03.215Z,7.85
2022-11-25T09:34:30.579Z,9.55
2022-11-25T09:37:01.620Z,8.43
2022-11-25T09:39:30.003Z,6.93
2022-11-25T09:42:54.670Z,8.30
2022-11-25T09:46:39.165Z,6.25
2022-11-25T09:49:41.870Z,10.40
2022-11-25T09:52:18.102Z,6.18
2022-11-25T09:55:09.134Z,9.52
2022-11-25T09:57:46.630Z,9.75
2022-11-25T10:00:27.301Z,8.13
2022-11-25T10:03:16.721Z,8.90
2022-11-25T10:06:04.842Z,8.02
2022-11-25T10:08:52.569Z,17.23
2022-11-25T10:11:29.215Z,7.32
2022-11-25T10:14:24.028Z,10.82
2022-11-25T10:17:20.793Z,8.05
2022-11-25T10:20:08.432Z,14.75
2022-11-25T10:22:48.016Z,7.15
2022-11-25T10:25:20.313Z,9.13
2022-11-25T10:27:57.828Z,9.95
2022-11-25T10:34:46.714Z,10.43
2022-11-25T10:37:31.242Z,9.77
2022-11-25T10:43:31.672Z,10.75
2022-11-25T10:46:12.326Z,11.68
2022-11-25T10:48:55.907Z,12.00
2022-11-25T10:54:27.967Z,9.25
2022-11-25T10:57:04.108Z,12.93
2022-11-25T11:00:02.698Z,7.47
2022-11-25T11:02:35.725Z,11.02
2022-11-25T11:05:09.484Z,9.32
2022-11-25T11:07:39.421Z,10.25
2022-11-25T11:10:27.445Z,8.88
2022-11-25T11:13:05.438Z,7.68
2022-11-25T11:15:41.958Z,7.28
2022-11-25T11:18:39.341Z,7.35
2022-11-25T11:21:21.633Z,11.40
2022-11-25T11:23:51.477Z,12.70
2022-11-25T11:26:29.057Z,8.18
2022-11-25T11:29:07.362Z,11.55
2022-11-25T11:34:31.751Z,7.93
2022-11-25T11:37:23.074Z,10.93
2022-11-25T11:40:14.318Z,12.65
2022-11-25T11:43:15.066Z,10.90
2022-11-25T11:46:03.959Z,8.80
2022-11-25T11:48:53.605Z,9.93
2022-11-25T11:51:42.528Z,10.98
2022-11-25T11:54:37.439Z,12.95
2022-11-25T12:00:12.557Z,12.70
2022-11-25T12:05:10.692Z,10.88
2022-11-25T12:08:09.072Z,7.63
2022-11-25T12:10:48.908Z,9.50
2022-11-25T12:13:17.119Z,10.38
2022-11-25T12:18:42.097Z,10.23
2022-11-25T12:21:41.616Z,11.90
2022-11-25T12:24:38.651Z,12.85
2022-11-25T12:27:17.308Z,6.35
2022-11-25T12:29:56.381Z,6.85
2022-11-25T12:32:41.069Z,9.82
2022-11-25T12:35:11.358Z,12.85
2022-11-25T12:37:53.779Z,8.38
2022-11-25T12:40:41.232Z,16.35
2022-11-25T12:43:36.308Z,10.13
2022-11-25T12:46:27.319Z,8.38
2022-11-25T12:49:01.625Z,11.18
2022-11-25T12:51:46.474Z,5.88
2022-11-25T12:54:39.216Z,10.23
2022-11-25T12:57:26.012Z,12.40
2022-11-25T13:03:43.833Z,7.53
2022-11-25T13:06:26.263Z,10.98
2022-11-25T13:09:16.583Z,9.43
2022-11-25T13:11:50.327Z,5.95
2022-11-25T13:14:40.030Z,9.48
2022-11-25T13:17:18.438Z,8.55
2022-11-25T13:19:47.018Z,11.88
2022-11-25T13:22:30.184Z,12.45
2022-11-25T13:25:01.664Z,8.73
2022-11-25T13:27:54.634Z,8.05
2022-11-25T13:30:33.851Z,10.73
2022-11-25T13:33:24.571Z,10.45
2022-11-25T13:35:55.431Z,8.63
2022-11-25T13:38:38.126Z,7.68
2022-11-25T13:41:37.404Z,9.38
2022-11-25T13:44:22.286Z,6.35
2022-11-25T13:46:59.759Z,5.85
2022-11-25T13:49:52.071Z,6.32
2022-11-25T13:52:20.161Z,6.72
2022-11-25T13:54:54.614Z,10.88
2022-11-25T13:57:41.596Z,7.38
2022-11-25T14:00:35.029Z,9.30
2022-11-25T14:03:21.871Z,9.85
2022-11-25T14:06:14.403Z,6.55
2022-11-25T14:09:02.243Z,7.57
2022-11-25T14:11:38.007Z,6.97
2022-11-25T14:14:28.838Z,9.35
2022-11-25T14:17:23.487Z,9.02
2022-11-25T14:20:06.748Z,10.55
2022-11-25T14:22:51.740Z,7.13
2022-11-25T14:25:34.986Z,8.90
2022-11-25T14:28:19.300Z,11.85
2022-11-25T14:30:53.736Z,9.13
2022-11-25T14:33:40.538Z,11.43
2022-11-25T14:36:16.417Z,9.45
2022-11-25T14:38:54.919Z,10.27
2022-11-25T14:42:35.136Z,10.55
2022-11-25T14:45:37.411Z,8.98
2022-11-25T14:48:32.118Z,8.40
2022-11-25T14:54:35.131Z,8.07
2022-11-25T15:07:41.620Z,6.80
2022-11-25T15:11:00.458Z,11.52
2022-11-25T15:13:48.316Z,9.98
2022-11-25T15:16:19.150Z,7.00
2022-11-25T15:18:53.081Z,10.43
2022-11-25T15:22:07.532Z,7.68
2022-11-25T15:24:31.064Z,8.05
2022-11-25T15:27:16.625Z,10.82
2022-11-25T15:29:46.229Z,10.73
2022-11-25T15:32:18.311Z,9.00
2022-11-25T15:34:51.642Z,8.38
2022-11-25T15:37:19.157Z,11.10
2022-11-25T15:39:49.743Z,6.40
2022-11-25T15:42:23.914Z,11.65
2022-11-25T15:45:05.216Z,13.25
2022-11-25T15:47:36.630Z,10.27
2022-11-25T15:50:29.276Z,7.93
2022-11-25T15:53:01.106Z,9.80
2022-11-25T15:55:38.440Z,8.02
2022-11-25T15:58:13.389Z,9.05
2022-11-25T16:00:42.291Z,10.95
2022-11-25T16:03:24.208Z,7.72
2022-11-25T16:05:58.219Z,9.55
2022-11-25T16:08:35.264Z,8.57
2022-11-25T16:11:20.531Z,10.27
2022-11-25T16:13:53.430Z,9.23
2022-11-25T16:16:29.209Z,12.88
2022-11-25T16:19:02.747Z,11.80
2022-11-25T16:21:36.633Z,11.23
2022-11-25T16:24:06.575Z,9.35
2022-11-25T16:26:58.122Z,16.58
2022-11-25T16:29:32.623Z,8.32
2022-11-25T16:32:04.127Z,8.60
2022-11-25T16:34:32.508Z,9.98
2022-11-25T16:36:59.873Z,8.98
2022-11-25T16:39:28.544Z,9.95
2022-11-25T16:41:58.871Z,7.28
2022-11-25T16:44:27.503Z,8.57
2022-11-25T16:46:55.265Z,10.55
2022-11-25T16:49:26.559Z,11.13
2022-11-25T16:51:54.657Z,9.63
2022-11-25T16:54:23.475Z,10.50
2022-11-25T16:59:29.335Z,9.65
2022-11-25T17:02:02.642Z,10.40
2022-11-25T17:04:29.894Z,11.57
2022-11-25T17:07:31.253Z,8.82
2022-11-25T17:09:48.542Z,9.98
2022-11-25T17:12:41.338Z,10.70
2022-11-25T17:18:17.094Z,11.80
2022-11-25T17:20:57.767Z,9.68
2022-11-25T17:23:27.035Z,13.90
2022-11-25T17:25:58.464Z,13.10
2022-11-25T17:28:26.820Z,11.65
2022-11-25T17:30:55.472Z,11.93
2022-11-25T17:33:23.196Z,10.95
2022-11-25T17:35:51.029Z,11.88
2022-11-25T17:38:21.696Z,12.32
2022-11-25T17:40:52.935Z,15.27
2022-11-25T17:43:21.245Z,10.77
2022-11-25T17:45:48.401Z,13.05
2022-11-25T17:48:21.724Z,11.75
2022-11-25T17:50:48.990Z,12.98
2022-11-25T17:53:18.469Z,14.77
2022-11-25T17:55:45.645Z,17.70
2022-11-25T17:58:16.406Z,16.25
2022-11-25T18:00:46.609Z,10.80
2022-11-25T18:06:09.053Z,12.85
2022-11-25T18:08:36.604Z,12.10
2022-11-25T18:11:12.569Z,15.93
2022-11-25T18:13:50.195Z,11.85
2022-11-25T18:16:20.190Z,12.00
2022-11-25T18:18:48.819Z,12.35
2022-11-25T18:21:15.868Z,13.48
2022-11-25T18:23:46.614Z,17.13
2022-11-25T18:26:16.368Z,10.45
2022-11-25T18:28:47.366Z,12.88
2022-11-25T18:31:14.853Z,11.70
2022-11-25T18:33:58.894Z,15.98
2022-11-25T18:36:27.176Z,14.25
2022-11-25T18:38:57.577Z,10.75
2022-11-25T18:41:24.754Z,11.55
2022-11-25T18:43:52.321Z,13.77
2022-11-25T18:46:21.534Z,18.63
2022-11-25T18:48:49.013Z,14.65
2022-11-25T18:51:17.760Z,8.75
2022-11-25T18:53:45.423Z,13.07
2022-11-25T18:56:17.943Z,14.48
2022-11-25T18:58:51.146Z,14.70
2022-11-25T19:01:24.208Z,8.77
2022-11-25T19:03:55.455Z,14.38
2022-11-25T19:06:27.208Z,13.05
2022-11-25T19:08:56.758Z,16.00
2022-11-25T19:11:30.233Z,11.05
2022-11-25T19:14:24.264Z,12.88
2022-11-25T19:16:52.867Z,15.05
2022-11-25T19:19:23.170Z,13.82
2022-11-25T19:21:52.729Z,10.63
2022-11-25T19:24:21.781Z,11.05
2022-11-25T19:26:53.937Z,10.02
2022-11-25T19:29:24.855Z,9.93
2022-11-25T19:31:54.920Z,17.17
2022-11-25T19:34:44.128Z,16.27
2022-11-25T19:39:47.872Z,11.68
2022-11-25T19:42:18.797Z,13.30
2022-11-25T19:44:53.852Z,13.55
2022-11-25T19:47:26.042Z,10.75
2022-11-25T19:50:00.298Z,13.25
2022-11-25T19:52:36.333Z,13.05
2022-11-25T19:55:15.265Z,16.42
2022-11-25T19:57:44.761Z,12.25
2022-11-25T20:00:13.836Z,13.48
2022-11-25T20:02:42.158Z,13.70
2022-11-25T20:05:19.118Z,13.15
2022-11-25T20:07:50.179Z,10.00
2022-11-25T20:10:26.881Z,10.23
2022-11-25T20:12:55.311Z,14.95
2022-11-25T20:15:23.709Z,15.82
2022-11-25T20:17:53.754Z,11.88
2022-11-25T20:20:39.143Z,14.27
2022-11-25T20:23:21.729Z,11.18
2022-11-25T20:25:49.931Z,12.18
2022-11-25T20:28:23.565Z,11.93
2022-11-25T20:30:52.429Z,9.55
2022-11-25T20:33:23.976Z,13.02
2022-11-25T20:36:00.096Z,14.00
2022-11-25T20:38:29.153Z,10.90
2022-11-25T20:43:34.484Z,12.15
2022-11-25T20:46:02.734Z,12.63
2022-11-25T20:48:30.143Z,10.30
2022-11-25T20:51:03.625Z,12.50
2022-11-25T20:53:32.577Z,11.93
2022-11-25T20:56:00.420Z,9.60
2022-11-25T20:58:30.313Z,13.13
2022-11-25T21:00:59.033Z,9.05
2022-11-25T21:03:26.711Z,8.30
2022-11-25T21:05:57.902Z,11.40
2022-11-25T21:08:28.752Z,14.30
2022-11-25T21:10:58.532Z,15.77
2022-11-25T21:15:54.699Z,10.43
2022-11-25T21:18:22.444Z,11.30
2022-11-25T21:20:51.744Z,11.57
2022-11-25T21:23:22.618Z,14.63
2022-11-25T21:25:50.085Z,13.05
2022-11-25T21:28:20.711Z,12.40
2022-11-25T21:30:48.115Z,10.85
2022-11-25T21:33:17.219Z,19.00
2022-11-25T21:38:20.816Z,11.30
2022-11-25T21:40:52.427Z,16.40
2022-11-25T21:43:22.028Z,11.70
2022-11-25T21:45:53.249Z,10.07
2022-11-25T21:48:23.086Z,11.43
2022-11-25T21:50:51.027Z,15.80
2022-11-25T21:53:18.843Z,13.20
2022-11-25T21:55:47.167Z,14.23
2022-11-25T21:58:20.729Z,12.05
2022-11-25T22:00:54.056Z,16.17
2022-11-25T22:03:22.655Z,9.75
2022-11-25T22:05:51.421Z,15.40
2022-11-25T22:08:18.515Z,14.32
2022-11-25T22:10:49.084Z,11.70
2022-11-25T22:13:23.276Z,13.10
2022-11-25T22:15:55.975Z,13.32
2022-11-25T22:18:35.279Z,14.35
2022-11-25T22:21:03.471Z,15.32
2022-11-25T22:23:30.619Z,15.35
2022-11-25T22:25:58.454Z,12.75
2022-11-25T22:28:28.784Z,15.73
2022-11-25T22:31:01.008Z,10.82
2022-11-25T22:33:34.684Z,14.48
2022-11-25T22:36:02.782Z,13.20
2022-11-25T22:38:30.716Z,16.35
2022-11-25T22:41:03.895Z,11.57
2022-11-25T22:43:38.551Z,10.73
2022-11-25T22:46:06.198Z,14.55
2022-11-25T22:48:38.697Z,14.57
2022-11-25T22:51:16.786Z,14.30
2022-11-25T22:53:43.757Z,11.90
2022-11-25T22:56:17.223Z,11.23
2022-11-25T22:58:44.546Z,18.42
2022-11-25T23:01:16.585Z,17.00
2022-11-25T23:03:45.806Z,14.38
2022-11-25T23:06:14.081Z,14.55
2022-11-25T23:08:41.362Z,16.98
2022-11-25T23:11:18.613Z,15.38
2022-11-25T23:13:45.800Z,11.23
2022-11-25T23:16:13.163Z,13.25
2022-11-25T23:18:45.461Z,12.07
2022-11-25T23:21:23.385Z,17.67
2022-11-25T23:23:50.831Z,14.88
2022-11-25T23:26:18.380Z,13.85
2022-11-25T23:28:46.903Z,14.13
2022-11-25T23:31:16.205Z,13.48
2022-11-25T23:33:49.368Z,9.45
2022-11-25T23:36:29.469Z,16.95
2022-11-25T23:39:00.420Z,17.48
2022-11-25T23:41:34.917Z,15.43
2022-11-25T23:44:17.848Z,12.13
2022-11-25T23:46:45.461Z,18.85
2022-11-25T23:49:25.256Z,18.27
2022-11-25T23:51:56.525Z,16.40
2022-11-25T23:54:29.223Z,15.70
2022-11-25T23:56:56.539Z,18.50
2022-11-25T23:59:25.996Z,18.10
